sensor_id;sensor_type;location;lat;lon;timestamp;temperature;humidity
48860;DHT22;34679;51.436;-2.518;2022-11-12T00:00:37;12.10;99.90
48860;DHT22;34679;51.436;-2.518;2022-11-12T00:03:03;12.10;99.90
48860;DHT22;34679;51.436;-2.518;2022-11-12T00:05:29;12.10;99.90
48860;DHT22;34679;51.436;-2.518;2022-11-12T00:07:55;12.10;99.90
48860;DHT22;34679;51.436;-2.518;2022-11-12T00:10:21;12.10;99.90
48860;DHT22;34679;51.436;-2.518;2022-11-12T00:12:47;11.90;99.90
48860;DHT22;34679;51.436;-2.518;2022-11-12T00:15:13;12.00;99.90
48860;DHT22;34679;51.436;-2.518;2022-11-12T00:17:38;11.90;99.90
48860;DHT22;34679;51.436;-2.518;2022-11-12T00:20:05;11.80;99.90
48860;DHT22;34679;51.436;-2.518;2022-11-12T00:22:31;11.80;99.90
48860;DHT22;34679;51.436;-2.518;2022-11-12T00:24:57;11.80;99.90
48860;DHT22;34679;51.436;-2.518;2022-11-12T00:27:22;11.80;99.90
48860;DHT22;34679;51.436;-2.518;2022-11-12T00:29:48;11.90;99.90
48860;DHT22;34679;51.436;-2.518;2022-11-12T00:32:14;11.80;99.90
48860;DHT22;34679;51.436;-2.518;2022-11-12T00:34:40;11.80;99.90
48860;DHT22;34679;51.436;-2.518;2022-11-12T00:37:05;11.70;99.90
48860;DHT22;34679;51.436;-2.518;2022-11-12T00:39:31;11.70;99.90
48860;DHT22;34679;51.436;-2.518;2022-11-12T00:41:57;11.60;99.90
48860;DHT22;34679;51.436;-2.518;2022-11-12T00:44:23;11.60;99.90
48860;DHT22;34679;51.436;-2.518;2022-11-12T00:46:49;11.70;99.90
48860;DHT22;34679;51.436;-2.518;2022-11-12T00:49:15;11.70;99.90
48860;DHT22;34679;51.436;-2.518;2022-11-12T00:51:41;11.70;99.90
48860;DHT22;34679;51.436;-2.518;2022-11-12T00:54:07;11.80;99.90
48860;DHT22;34679;51.436;-2.518;2022-11-12T00:56:33;11.80;99.90
48860;DHT22;34679;51.436;-2.518;2022-11-12T00:58:59;11.80;99.90
48860;DHT22;34679;51.436;-2.518;2022-11-12T01:01:25;11.70;99.90
48860;DHT22;34679;51.436;-2.518;2022-11-12T01:03:51;11.80;99.90
48860;DHT22;34679;51.436;-2.518;2022-11-12T01:06:19;11.70;99.90
48860;DHT22;34679;51.436;-2.518;2022-11-12T01:08:46;11.70;99.90
48860;DHT22;34679;51.436;-2.518;2022-11-12T01:11:21;11.70;99.90
48860;DHT22;34679;51.436;-2.518;2022-11-12T01:13:54;11.60;99.90
48860;DHT22;34679;51.436;-2.518;2022-11-12T01:16:21;11.60;99.90
48860;DHT22;34679;51.436;-2.518;2022-11-12T01:18:52;11.50;99.90
48860;DHT22;34679;51.436;-2.518;2022-11-12T01:21:18;11.30;99.90
48860;DHT22;34679;51.436;-2.518;2022-11-12T01:23:43;11.20;99.90
48860;DHT22;34679;51.436;-2.518;2022-11-12T01:26:12;11.20;99.90
48860;DHT22;34679;51.436;-2.518;2022-11-12T01:28:38;11.20;99.90
48860;DHT22;34679;51.436;-2.518;2022-11-12T01:31:19;11.20;99.90
48860;DHT22;34679;51.436;-2.518;2022-11-12T01:33:48;11.20;99.90
48860;DHT22;34679;51.436;-2.518;2022-11-12T01:36:16;11.20;99.90
48860;DHT22;34679;51.436;-2.518;2022-11-12T01:38:43;11.20;99.90
48860;DHT22;34679;51.436;-2.518;2022-11-12T01:41:12;11.30;99.90
48860;DHT22;34679;51.436;-2.518;2022-11-12T01:43:38;11.30;99.90
48860;DHT22;34679;51.436;-2.518;2022-11-12T01:46:11;11.30;99.90
48860;DHT22;34679;51.436;-2.518;2022-11-12T01:48:55;11.30;99.90
48860;DHT22;34679;51.436;-2.518;2022-11-12T01:51:22;11.30;99.90
48860;DHT22;34679;51.436;-2.518;2022-11-12T01:53:53;11.40;99.90
48860;DHT22;34679;51.436;-2.518;2022-11-12T01:56:21;11.40;99.90
48860;DHT22;34679;51.436;-2.518;2022-11-12T01:58:51;11.40;99.90
48860;DHT22;34679;51.436;-2.518;2022-11-12T02:01:19;11.40;99.90
48860;DHT22;34679;51.436;-2.518;2022-11-12T02:03:44;11.40;99.90
48860;DHT22;34679;51.436;-2.518;2022-11-12T02:06:13;11.40;99.90
48860;DHT22;34679;51.436;-2.518;2022-11-12T02:08:40;11.50;99.90
48860;DHT22;34679;51.436;-2.518;2022-11-12T02:11:18;11.50;99.90
48860;DHT22;34679;51.436;-2.518;2022-11-12T02:13:44;11.50;99.90
48860;DHT22;34679;51.436;-2.518;2022-11-12T02:16:44;11.60;99.90
48860;DHT22;34679;51.436;-2.518;2022-11-12T02:19:13;11.60;99.90
48860;DHT22;34679;51.436;-2.518;2022-11-12T02:21:40;11.60;99.90
48860;DHT22;34679;51.436;-2.518;2022-11-12T02:26:40;11.50;99.90
48860;DHT22;34679;51.436;-2.518;2022-11-12T02:29:08;11.50;99.90
48860;DHT22;34679;51.436;-2.518;2022-11-12T02:31:34;11.50;99.90
48860;DHT22;34679;51.436;-2.518;2022-11-12T02:34:00;11.50;99.90
48860;DHT22;34679;51.436;-2.518;2022-11-12T02:36:27;11.60;99.90
48860;DHT22;34679;51.436;-2.518;2022-11-12T02:38:53;11.50;99.90
48860;DHT22;34679;51.436;-2.518;2022-11-12T02:41:18;11.40;99.90
48860;DHT22;34679;51.436;-2.518;2022-11-12T02:43:44;11.50;99.90
48860;DHT22;34679;51.436;-2.518;2022-11-12T02:46:10;11.60;99.90
48860;DHT22;34679;51.436;-2.518;2022-11-12T02:48:36;11.60;99.90
48860;DHT22;34679;51.436;-2.518;2022-11-12T02:51:02;11.50;99.90
48860;DHT22;34679;51.436;-2.518;2022-11-12T02:53:28;11.40;99.90
48860;DHT22;34679;51.436;-2.518;2022-11-12T02:55:53;11.40;99.90
48860;DHT22;34679;51.436;-2.518;2022-11-12T02:58:19;11.40;99.90
48860;DHT22;34679;51.436;-2.518;2022-11-12T03:00:47;11.50;99.90
48860;DHT22;34679;51.436;-2.518;2022-11-12T03:03:12;11.50;99.90
48860;DHT22;34679;51.436;-2.518;2022-11-12T03:05:38;11.60;99.90
48860;DHT22;34679;51.436;-2.518;2022-11-12T03:08:06;11.60;99.90
48860;DHT22;34679;51.436;-2.518;2022-11-12T03:10:32;11.50;99.90
48860;DHT22;34679;51.436;-2.518;2022-11-12T03:13:00;11.50;99.90
48860;DHT22;34679;51.436;-2.518;2022-11-12T03:15:27;11.50;99.90
48860;DHT22;34679;51.436;-2.518;2022-11-12T03:17:53;11.50;99.90
48860;DHT22;34679;51.436;-2.518;2022-11-12T03:20:18;11.50;99.90
48860;DHT22;34679;51.436;-2.518;2022-11-12T03:22:55;11.50;99.90
48860;DHT22;34679;51.436;-2.518;2022-11-12T03:25:21;11.50;99.90
48860;DHT22;34679;51.436;-2.518;2022-11-12T03:27:47;11.40;99.90
48860;DHT22;34679;51.436;-2.518;2022-11-12T03:30:12;11.40;99.90
48860;DHT22;34679;51.436;-2.518;2022-11-12T03:32:38;11.30;99.90
48860;DHT22;34679;51.436;-2.518;2022-11-12T03:35:04;11.20;99.90
48860;DHT22;34679;51.436;-2.518;2022-11-12T03:37:30;11.10;99.90
48860;DHT22;34679;51.436;-2.518;2022-11-12T03:39:55;11.10;99.90
48860;DHT22;34679;51.436;-2.518;2022-11-12T03:42:21;11.10;99.90
48860;DHT22;34679;51.436;-2.518;2022-11-12T03:44:46;11.00;99.90
48860;DHT22;34679;51.436;-2.518;2022-11-12T03:47:12;11.00;99.90
48860;DHT22;34679;51.436;-2.518;2022-11-12T03:49:38;11.10;99.90
48860;DHT22;34679;51.436;-2.518;2022-11-12T03:52:04;11.10;99.90
48860;DHT22;34679;51.436;-2.518;2022-11-12T03:54:30;11.00;99.90
48860;DHT22;34679;51.436;-2.518;2022-11-12T03:56:55;11.00;99.90
48860;DHT22;34679;51.436;-2.518;2022-11-12T03:59:21;11.00;99.90
48860;DHT22;34679;51.436;-2.518;2022-11-12T04:01:47;11.00;99.90
48860;DHT22;34679;51.436;-2.518;2022-11-12T04:04:12;11.00;99.90
48860;DHT22;34679;51.436;-2.518;2022-11-12T04:06:38;10.90;99.90
48860;DHT22;34679;51.436;-2.518;2022-11-12T04:09:23;10.90;99.90
48860;DHT22;34679;51.436;-2.518;2022-11-12T04:11:48;10.90;99.90
48860;DHT22;34679;51.436;-2.518;2022-11-12T04:14:14;10.90;99.90
48860;DHT22;34679;51.436;-2.518;2022-11-12T04:16:39;10.90;99.90
48860;DHT22;34679;51.436;-2.518;2022-11-12T04:19:24;10.90;99.90
48860;DHT22;34679;51.436;-2.518;2022-11-12T04:22:09;10.80;99.90
48860;DHT22;34679;51.436;-2.518;2022-11-12T04:24:40;10.80;99.90
48860;DHT22;34679;51.436;-2.518;2022-11-12T04:27:25;10.70;99.90
48860;DHT22;34679;51.436;-2.518;2022-11-12T04:29:52;10.80;99.90
48860;DHT22;34679;51.436;-2.518;2022-11-12T04:32:39;10.80;99.90
48860;DHT22;34679;51.436;-2.518;2022-11-12T04:35:07;10.90;99.90
48860;DHT22;34679;51.436;-2.518;2022-11-12T04:37:34;10.90;99.90
48860;DHT22;34679;51.436;-2.518;2022-11-12T04:42:59;11.00;99.90
48860;DHT22;34679;51.436;-2.518;2022-11-12T04:45:46;11.00;99.90
48860;DHT22;34679;51.436;-2.518;2022-11-12T04:48:13;11.00;99.90
48860;DHT22;34679;51.436;-2.518;2022-11-12T04:50:39;11.10;99.90
48860;DHT22;34679;51.436;-2.518;2022-11-12T04:53:05;11.10;99.90
48860;DHT22;34679;51.436;-2.518;2022-11-12T04:55:31;11.10;99.90
48860;DHT22;34679;51.436;-2.518;2022-11-12T04:57:57;11.10;99.90
48860;DHT22;34679;51.436;-2.518;2022-11-12T05:00:23;11.10;99.90
48860;DHT22;34679;51.436;-2.518;2022-11-12T05:02:49;11.10;99.90
48860;DHT22;34679;51.436;-2.518;2022-11-12T05:05:15;11.10;99.90
48860;DHT22;34679;51.436;-2.518;2022-11-12T05:07:41;11.10;99.90
48860;DHT22;34679;51.436;-2.518;2022-11-12T05:10:07;11.00;99.90
48860;DHT22;34679;51.436;-2.518;2022-11-12T05:12:33;11.00;99.90
48860;DHT22;34679;51.436;-2.518;2022-11-12T05:14:59;10.90;99.90
48860;DHT22;34679;51.436;-2.518;2022-11-12T05:17:25;10.80;99.90
48860;DHT22;34679;51.436;-2.518;2022-11-12T05:19:50;10.90;99.90
48860;DHT22;34679;51.436;-2.518;2022-11-12T05:22:16;10.70;99.90
48860;DHT22;34679;51.436;-2.518;2022-11-12T05:24:43;10.60;99.90
48860;DHT22;34679;51.436;-2.518;2022-11-12T05:27:14;10.60;99.90
48860;DHT22;34679;51.436;-2.518;2022-11-12T05:29:40;10.60;99.90
48860;DHT22;34679;51.436;-2.518;2022-11-12T05:32:08;10.70;99.90
48860;DHT22;34679;51.436;-2.518;2022-11-12T05:34:34;10.70;99.90
48860;DHT22;34679;51.436;-2.518;2022-11-12T05:37:01;10.70;99.90
48860;DHT22;34679;51.436;-2.518;2022-11-12T05:39:27;10.70;99.90
48860;DHT22;34679;51.436;-2.518;2022-11-12T05:41:53;10.80;99.90
48860;DHT22;34679;51.436;-2.518;2022-11-12T05:44:19;10.90;99.90
48860;DHT22;34679;51.436;-2.518;2022-11-12T05:46:45;10.90;99.90
48860;DHT22;34679;51.436;-2.518;2022-11-12T05:49:11;10.80;99.90
48860;DHT22;34679;51.436;-2.518;2022-11-12T05:51:36;10.80;99.90
48860;DHT22;34679;51.436;-2.518;2022-11-12T05:54:03;10.80;99.90
48860;DHT22;34679;51.436;-2.518;2022-11-12T05:56:28;10.80;99.90
48860;DHT22;34679;51.436;-2.518;2022-11-12T05:58:55;10.80;99.90
48860;DHT22;34679;51.436;-2.518;2022-11-12T06:01:20;10.80;99.90
48860;DHT22;34679;51.436;-2.518;2022-11-12T06:03:46;10.80;99.90
48860;DHT22;34679;51.436;-2.518;2022-11-12T06:06:12;10.90;99.90
48860;DHT22;34679;51.436;-2.518;2022-11-12T06:08:37;10.80;99.90
48860;DHT22;34679;51.436;-2.518;2022-11-12T06:11:03;10.80;99.90
48860;DHT22;34679;51.436;-2.518;2022-11-12T06:13:29;10.90;99.90
48860;DHT22;34679;51.436;-2.518;2022-11-12T06:15:55;10.90;99.90
48860;DHT22;34679;51.436;-2.518;2022-11-12T06:18:22;10.90;99.90
48860;DHT22;34679;51.436;-2.518;2022-11-12T06:20:48;11.00;99.90
48860;DHT22;34679;51.436;-2.518;2022-11-12T06:23:34;11.10;99.90
48860;DHT22;34679;51.436;-2.518;2022-11-12T06:26:00;11.10;99.90
48860;DHT22;34679;51.436;-2.518;2022-11-12T06:28:26;11.20;99.90
48860;DHT22;34679;51.436;-2.518;2022-11-12T06:30:52;11.20;99.90
48860;DHT22;34679;51.436;-2.518;2022-11-12T06:33:17;11.10;99.90
48860;DHT22;34679;51.436;-2.518;2022-11-12T06:35:43;11.20;99.90
48860;DHT22;34679;51.436;-2.518;2022-11-12T06:38:09;11.20;99.90
48860;DHT22;34679;51.436;-2.518;2022-11-12T06:40:34;11.30;99.90
48860;DHT22;34679;51.436;-2.518;2022-11-12T06:43:00;11.30;99.90
48860;DHT22;34679;51.436;-2.518;2022-11-12T06:45:26;11.30;99.90
48860;DHT22;34679;51.436;-2.518;2022-11-12T06:47:51;11.30;99.90
48860;DHT22;34679;51.436;-2.518;2022-11-12T06:50:21;11.30;99.90
48860;DHT22;34679;51.436;-2.518;2022-11-12T06:52:47;11.30;99.90
48860;DHT22;34679;51.436;-2.518;2022-11-12T06:55:12;11.30;99.90
48860;DHT22;34679;51.436;-2.518;2022-11-12T06:57:38;11.30;99.90
48860;DHT22;34679;51.436;-2.518;2022-11-12T07:00:04;11.30;99.90
48860;DHT22;34679;51.436;-2.518;2022-11-12T07:02:30;11.30;99.90
48860;DHT22;34679;51.436;-2.518;2022-11-12T07:04:56;11.30;99.90
48860;DHT22;34679;51.436;-2.518;2022-11-12T07:07:21;11.20;99.90
48860;DHT22;34679;51.436;-2.518;2022-11-12T07:09:47;11.20;99.90
48860;DHT22;34679;51.436;-2.518;2022-11-12T07:12:13;11.20;99.90
48860;DHT22;34679;51.436;-2.518;2022-11-12T07:14:38;11.20;99.90
48860;DHT22;34679;51.436;-2.518;2022-11-12T07:17:04;11.20;99.90
48860;DHT22;34679;51.436;-2.518;2022-11-12T07:19:29;11.20;99.90
48860;DHT22;34679;51.436;-2.518;2022-11-12T07:21:55;11.20;99.90
48860;DHT22;34679;51.436;-2.518;2022-11-12T07:24:21;11.10;99.90
48860;DHT22;34679;51.436;-2.518;2022-11-12T07:26:46;11.10;99.90
48860;DHT22;34679;51.436;-2.518;2022-11-12T07:29:12;11.00;99.90
48860;DHT22;34679;51.436;-2.518;2022-11-12T07:31:37;11.00;99.90
48860;DHT22;34679;51.436;-2.518;2022-11-12T07:34:03;11.00;99.90
48860;DHT22;34679;51.436;-2.518;2022-11-12T07:36:29;11.00;99.90
48860;DHT22;34679;51.436;-2.518;2022-11-12T07:38:54;10.90;99.90
48860;DHT22;34679;51.436;-2.518;2022-11-12T07:41:22;11.00;99.90
48860;DHT22;34679;51.436;-2.518;2022-11-12T07:43:50;11.10;99.90
48860;DHT22;34679;51.436;-2.518;2022-11-12T07:46:22;11.10;99.90
48860;DHT22;34679;51.436;-2.518;2022-11-12T07:48:48;11.10;99.90
48860;DHT22;34679;51.436;-2.518;2022-11-12T07:51:22;11.20;99.90
48860;DHT22;34679;51.436;-2.518;2022-11-12T07:53:49;11.20;99.90
48860;DHT22;34679;51.436;-2.518;2022-11-12T07:56:18;11.30;99.90
48860;DHT22;34679;51.436;-2.518;2022-11-12T07:58:45;11.40;99.90
48860;DHT22;34679;51.436;-2.518;2022-11-12T08:01:35;11.50;99.90
48860;DHT22;34679;51.436;-2.518;2022-11-12T08:04:04;11.50;99.90
48860;DHT22;34679;51.436;-2.518;2022-11-12T08:06:31;11.50;99.90
48860;DHT22;34679;51.436;-2.518;2022-11-12T08:08:59;11.50;99.90
48860;DHT22;34679;51.436;-2.518;2022-11-12T08:11:26;11.60;99.90
48860;DHT22;34679;51.436;-2.518;2022-11-12T08:13:52;11.60;99.90
48860;DHT22;34679;51.436;-2.518;2022-11-12T08:16:18;11.60;99.90
48860;DHT22;34679;51.436;-2.518;2022-11-12T08:18:45;11.60;99.90
48860;DHT22;34679;51.436;-2.518;2022-11-12T08:21:13;11.60;99.90
48860;DHT22;34679;51.436;-2.518;2022-11-12T08:23:39;11.60;99.90
48860;DHT22;34679;51.436;-2.518;2022-11-12T08:26:08;11.70;99.90
48860;DHT22;34679;51.436;-2.518;2022-11-12T08:28:36;11.70;99.90
48860;DHT22;34679;51.436;-2.518;2022-11-12T08:31:16;11.70;99.90
48860;DHT22;34679;51.436;-2.518;2022-11-12T08:33:42;11.80;99.90
48860;DHT22;34679;51.436;-2.518;2022-11-12T08:36:10;11.80;99.90
48860;DHT22;34679;51.436;-2.518;2022-11-12T08:38:36;11.80;99.90
48860;DHT22;34679;51.436;-2.518;2022-11-12T08:41:05;11.80;99.90
48860;DHT22;34679;51.436;-2.518;2022-11-12T08:43:31;11.80;99.90
48860;DHT22;34679;51.436;-2.518;2022-11-12T08:45:58;11.80;99.90
48860;DHT22;34679;51.436;-2.518;2022-11-12T08:48:25;11.80;99.90
48860;DHT22;34679;51.436;-2.518;2022-11-12T08:50:52;11.90;99.90
48860;DHT22;34679;51.436;-2.518;2022-11-12T08:53:21;11.90;99.90
48860;DHT22;34679;51.436;-2.518;2022-11-12T08:55:47;11.80;99.90
48860;DHT22;34679;51.436;-2.518;2022-11-12T08:58:13;11.80;99.90
48860;DHT22;34679;51.436;-2.518;2022-11-12T09:00:41;11.90;99.90
48860;DHT22;34679;51.436;-2.518;2022-11-12T09:03:13;11.90;99.90
48860;DHT22;34679;51.436;-2.518;2022-11-12T09:05:39;11.90;99.90
48860;DHT22;34679;51.436;-2.518;2022-11-12T09:08:07;12.00;99.90
48860;DHT22;34679;51.436;-2.518;2022-11-12T09:10:34;12.00;99.90
48860;DHT22;34679;51.436;-2.518;2022-11-12T09:13:00;12.00;99.90
48860;DHT22;34679;51.436;-2.518;2022-11-12T09:15:27;12.10;99.90
48860;DHT22;34679;51.436;-2.518;2022-11-12T09:17:56;12.20;99.90
48860;DHT22;34679;51.436;-2.518;2022-11-12T09:20:23;12.20;99.90
48860;DHT22;34679;51.436;-2.518;2022-11-12T09:22:49;12.30;99.90
48860;DHT22;34679;51.436;-2.518;2022-11-12T09:25:15;12.40;99.90
48860;DHT22;34679;51.436;-2.518;2022-11-12T09:27:41;12.40;99.90
48860;DHT22;34679;51.436;-2.518;2022-11-12T09:30:07;12.40;99.90
48860;DHT22;34679;51.436;-2.518;2022-11-12T09:32:33;12.50;99.90
48860;DHT22;34679;51.436;-2.518;2022-11-12T09:34:58;12.60;99.90
48860;DHT22;34679;51.436;-2.518;2022-11-12T09:37:24;12.60;99.90
48860;DHT22;34679;51.436;-2.518;2022-11-12T09:39:50;12.70;99.90
48860;DHT22;34679;51.436;-2.518;2022-11-12T09:42:18;12.70;99.90
48860;DHT22;34679;51.436;-2.518;2022-11-12T09:44:58;12.90;99.90
48860;DHT22;34679;51.436;-2.518;2022-11-12T09:47:43;13.00;99.90
48860;DHT22;34679;51.436;-2.518;2022-11-12T09:52:36;13.20;99.90
48860;DHT22;34679;51.436;-2.518;2022-11-12T09:55:17;13.30;99.90
48860;DHT22;34679;51.436;-2.518;2022-11-12T09:57:45;13.40;99.90
48860;DHT22;34679;51.436;-2.518;2022-11-12T10:00:18;13.50;99.90
48860;DHT22;34679;51.436;-2.518;2022-11-12T10:02:56;13.60;99.90
48860;DHT22;34679;51.436;-2.518;2022-11-12T10:05:30;13.60;99.90
48860;DHT22;34679;51.436;-2.518;2022-11-12T10:08:15;13.70;99.90
48860;DHT22;34679;51.436;-2.518;2022-11-12T10:10:52;13.80;99.90
48860;DHT22;34679;51.436;-2.518;2022-11-12T10:17:07;14.20;99.90
48860;DHT22;34679;51.436;-2.518;2022-11-12T10:24:36;14.60;99.90
48860;DHT22;34679;51.436;-2.518;2022-11-12T10:27:17;14.60;99.90
48860;DHT22;34679;51.436;-2.518;2022-11-12T10:30:00;14.60;99.90
48860;DHT22;34679;51.436;-2.518;2022-11-12T10:32:27;14.50;99.90
48860;DHT22;34679;51.436;-2.518;2022-11-12T10:34:52;14.50;99.90
48860;DHT22;34679;51.436;-2.518;2022-11-12T10:37:32;14.50;99.90
48860;DHT22;34679;51.436;-2.518;2022-11-12T10:43:22;14.60;99.90
48860;DHT22;34679;51.436;-2.518;2022-11-12T10:45:49;14.60;99.90
48860;DHT22;34679;51.436;-2.518;2022-11-12T10:48:24;14.60;99.90
48860;DHT22;34679;51.436;-2.518;2022-11-12T10:50:51;14.70;99.90
48860;DHT22;34679;51.436;-2.518;2022-11-12T10:53:33;14.80;99.90
48860;DHT22;34679;51.436;-2.518;2022-11-12T10:56:04;14.80;99.90
48860;DHT22;34679;51.436;-2.518;2022-11-12T10:58:57;14.80;99.90
48860;DHT22;34679;51.436;-2.518;2022-11-12T11:01:31;14.80;99.90
48860;DHT22;34679;51.436;-2.518;2022-11-12T11:03:58;14.80;99.90
48860;DHT22;34679;51.436;-2.518;2022-11-12T11:06:25;14.90;99.90
48860;DHT22;34679;51.436;-2.518;2022-11-12T11:08:52;15.00;99.90
48860;DHT22;34679;51.436;-2.518;2022-11-12T11:11:29;15.00;99.90
48860;DHT22;34679;51.436;-2.518;2022-11-12T11:14:30;15.00;99.90
48860;DHT22;34679;51.436;-2.518;2022-11-12T11:17:04;15.00;99.90
48860;DHT22;34679;51.436;-2.518;2022-11-12T11:19:42;15.10;99.90
48860;DHT22;34679;51.436;-2.518;2022-11-12T11:30:12;15.40;99.90
48860;DHT22;34679;51.436;-2.518;2022-11-12T11:33:17;15.40;99.90
48860;DHT22;34679;51.436;-2.518;2022-11-12T11:38:59;15.50;99.90
48860;DHT22;34679;51.436;-2.518;2022-11-12T11:41:50;15.50;99.90
48860;DHT22;34679;51.436;-2.518;2022-11-12T11:44:28;15.50;99.90
48860;DHT22;34679;51.436;-2.518;2022-11-12T11:49:41;15.60;99.90
48860;DHT22;34679;51.436;-2.518;2022-11-12T11:55:05;15.70;99.90
48860;DHT22;34679;51.436;-2.518;2022-11-12T12:00:38;15.80;99.90
48860;DHT22;34679;51.436;-2.518;2022-11-12T12:03:20;15.80;99.90
48860;DHT22;34679;51.436;-2.518;2022-11-12T12:06:07;15.90;99.90
48860;DHT22;34679;51.436;-2.518;2022-11-12T12:09:03;16.00;99.90
48860;DHT22;34679;51.436;-2.518;2022-11-12T12:11:44;15.90;99.90
48860;DHT22;34679;51.436;-2.518;2022-11-12T12:14:17;16.00;99.90
48860;DHT22;34679;51.436;-2.518;2022-11-12T12:19:56;16.00;99.90
48860;DHT22;34679;51.436;-2.518;2022-11-12T12:22:39;16.10;99.90
48860;DHT22;34679;51.436;-2.518;2022-11-12T12:25:20;16.10;99.90
48860;DHT22;34679;51.436;-2.518;2022-11-12T12:27:59;16.20;99.90
48860;DHT22;34679;51.436;-2.518;2022-11-12T12:30:27;16.20;99.90
48860;DHT22;34679;51.436;-2.518;2022-11-12T12:33:12;16.30;99.90
48860;DHT22;34679;51.436;-2.518;2022-11-12T12:35:50;16.20;99.90
48860;DHT22;34679;51.436;-2.518;2022-11-12T12:38:23;16.20;99.90
48860;DHT22;34679;51.436;-2.518;2022-11-12T12:41:24;16.30;99.90
48860;DHT22;34679;51.436;-2.518;2022-11-12T12:44:05;16.40;99.90
48860;DHT22;34679;51.436;-2.518;2022-11-12T12:46:38;16.40;99.90
48860;DHT22;34679;51.436;-2.518;2022-11-12T12:49:05;16.40;99.90
48860;DHT22;34679;51.436;-2.518;2022-11-12T12:51:32;16.50;99.90
48860;DHT22;34679;51.436;-2.518;2022-11-12T12:53:59;16.60;99.90
48860;DHT22;34679;51.436;-2.518;2022-11-12T12:58:53;16.60;99.90
48860;DHT22;34679;51.436;-2.518;2022-11-12T13:03:49;16.70;99.90
48860;DHT22;34679;51.436;-2.518;2022-11-12T13:19:45;17.00;99.90
48860;DHT22;34679;51.436;-2.518;2022-11-12T13:40:51;17.20;99.90
48860;DHT22;34679;51.436;-2.518;2022-11-12T13:43:40;17.30;99.90
48860;DHT22;34679;51.436;-2.518;2022-11-12T13:48:42;17.40;99.90
48860;DHT22;34679;51.436;-2.518;2022-11-12T13:54:00;17.40;99.90
48860;DHT22;34679;51.436;-2.518;2022-11-12T13:56:30;17.40;99.90
48860;DHT22;34679;51.436;-2.518;2022-11-12T13:59:17;17.40;99.90
48860;DHT22;34679;51.436;-2.518;2022-11-12T14:01:44;17.40;99.90
48860;DHT22;34679;51.436;-2.518;2022-11-12T14:04:13;17.40;99.90
48860;DHT22;34679;51.436;-2.518;2022-11-12T14:07:11;17.40;99.90
48860;DHT22;34679;51.436;-2.518;2022-11-12T14:10:00;17.40;99.90
48860;DHT22;34679;51.436;-2.518;2022-11-12T14:18:43;17.30;99.90
48860;DHT22;34679;51.436;-2.518;2022-11-12T14:21:16;17.40;99.90
48860;DHT22;34679;51.436;-2.518;2022-11-12T14:23:45;17.40;99.90
48860;DHT22;34679;51.436;-2.518;2022-11-12T14:26:13;17.40;99.90
48860;DHT22;34679;51.436;-2.518;2022-11-12T14:28:39;17.40;99.90
48860;DHT22;34679;51.436;-2.518;2022-11-12T14:31:13;17.40;99.90
48860;DHT22;34679;51.436;-2.518;2022-11-12T14:33:39;17.30;99.90
48860;DHT22;34679;51.436;-2.518;2022-11-12T14:36:14;17.30;99.90
48860;DHT22;34679;51.436;-2.518;2022-11-12T14:38:46;17.30;99.90
48860;DHT22;34679;51.436;-2.518;2022-11-12T14:41:18;17.20;99.90
48860;DHT22;34679;51.436;-2.518;2022-11-12T14:43:46;17.10;99.90
48860;DHT22;34679;51.436;-2.518;2022-11-12T14:46:47;17.20;99.90
48860;DHT22;34679;51.436;-2.518;2022-11-12T14:49:33;17.20;99.90
48860;DHT22;34679;51.436;-2.518;2022-11-12T14:54:35;17.10;99.90
48860;DHT22;34679;51.436;-2.518;2022-11-12T14:57:04;17.00;99.90
48860;DHT22;34679;51.436;-2.518;2022-11-12T14:59:31;17.10;99.90
48860;DHT22;34679;51.436;-2.518;2022-11-12T15:02:12;17.10;99.90
48860;DHT22;34679;51.436;-2.518;2022-11-12T15:04:51;17.00;99.90
48860;DHT22;34679;51.436;-2.518;2022-11-12T15:07:33;17.00;99.90
48860;DHT22;34679;51.436;-2.518;2022-11-12T15:09:59;16.90;99.90
48860;DHT22;34679;51.436;-2.518;2022-11-12T15:12:29;16.80;99.90
48860;DHT22;34679;51.436;-2.518;2022-11-12T15:15:18;16.90;99.90
48860;DHT22;34679;51.436;-2.518;2022-11-12T15:17:58;16.80;99.90
48860;DHT22;34679;51.436;-2.518;2022-11-12T15:20:25;16.80;99.90
48860;DHT22;34679;51.436;-2.518;2022-11-12T15:22:52;16.70;99.90
48860;DHT22;34679;51.436;-2.518;2022-11-12T15:25:27;16.70;99.90
48860;DHT22;34679;51.436;-2.518;2022-11-12T15:27:54;16.70;99.90
48860;DHT22;34679;51.436;-2.518;2022-11-12T15:30:25;16.70;99.90
48860;DHT22;34679;51.436;-2.518;2022-11-12T15:33:08;16.60;99.90
48860;DHT22;34679;51.436;-2.518;2022-11-12T15:35:35;16.60;99.90
48860;DHT22;34679;51.436;-2.518;2022-11-12T15:38:09;16.60;99.90
48860;DHT22;34679;51.436;-2.518;2022-11-12T15:40:42;16.60;99.90
48860;DHT22;34679;51.436;-2.518;2022-11-12T15:43:18;16.50;99.90
48860;DHT22;34679;51.436;-2.518;2022-11-12T15:45:50;16.40;99.90
48860;DHT22;34679;51.436;-2.518;2022-11-12T15:48:16;16.40;99.90
48860;DHT22;34679;51.436;-2.518;2022-11-12T15:50:42;16.40;99.90
48860;DHT22;34679;51.436;-2.518;2022-11-12T15:53:08;16.40;99.90
48860;DHT22;34679;51.436;-2.518;2022-11-12T15:55:36;16.30;99.90
48860;DHT22;34679;51.436;-2.518;2022-11-12T15:58:02;16.20;99.90
48860;DHT22;34679;51.436;-2.518;2022-11-12T16:00:36;16.20;99.90
48860;DHT22;34679;51.436;-2.518;2022-11-12T16:03:16;16.20;99.90
48860;DHT22;34679;51.436;-2.518;2022-11-12T16:05:43;16.10;99.90
48860;DHT22;34679;51.436;-2.518;2022-11-12T16:08:09;16.10;99.90
48860;DHT22;34679;51.436;-2.518;2022-11-12T16:10:37;16.00;99.90
48860;DHT22;34679;51.436;-2.518;2022-11-12T16:13:04;16.00;99.90
48860;DHT22;34679;51.436;-2.518;2022-11-12T16:15:30;16.00;99.90
48860;DHT22;34679;51.436;-2.518;2022-11-12T16:17:57;15.90;99.90
48860;DHT22;34679;51.436;-2.518;2022-11-12T16:20:30;15.90;99.90
48860;DHT22;34679;51.436;-2.518;2022-11-12T16:22:57;15.80;99.90
48860;DHT22;34679;51.436;-2.518;2022-11-12T16:25:26;15.80;99.90
48860;DHT22;34679;51.436;-2.518;2022-11-12T16:27:54;15.70;99.90
48860;DHT22;34679;51.436;-2.518;2022-11-12T16:30:22;15.60;99.90
48860;DHT22;34679;51.436;-2.518;2022-11-12T16:32:49;15.60;99.90
48860;DHT22;34679;51.436;-2.518;2022-11-12T16:35:15;15.40;99.90
48860;DHT22;34679;51.436;-2.518;2022-11-12T16:37:45;15.40;99.90
48860;DHT22;34679;51.436;-2.518;2022-11-12T16:40:22;15.40;99.90
48860;DHT22;34679;51.436;-2.518;2022-11-12T16:42:49;15.40;99.90
48860;DHT22;34679;51.436;-2.518;2022-11-12T16:45:17;15.40;99.90
48860;DHT22;34679;51.436;-2.518;2022-11-12T16:47:45;15.30;99.90
48860;DHT22;34679;51.436;-2.518;2022-11-12T16:50:17;15.30;99.90
48860;DHT22;34679;51.436;-2.518;2022-11-12T16:52:43;15.30;99.90
48860;DHT22;34679;51.436;-2.518;2022-11-12T16:55:09;15.20;99.90
48860;DHT22;34679;51.436;-2.518;2022-11-12T16:57:35;15.30;99.90
48860;DHT22;34679;51.436;-2.518;2022-11-12T17:00:02;15.20;99.90
48860;DHT22;34679;51.436;-2.518;2022-11-12T17:02:28;15.10;99.90
48860;DHT22;34679;51.436;-2.518;2022-11-12T17:04:54;15.20;99.90